Time,TemperatureF,DewpointF,PressureIn,WindDirection,WindDirectionDegrees,WindSpeedMPH,WindSpeedGustMPH,Humidity,HourlyPrecipIn,Conditions,Clouds,dailyrainin,SoftwareType,DateUTC
2013-10-25 00:01:00,62.2,57.0,30.12,NNE,27,5.0,-999.0,83,-99.99,,,0.00,weatherlink.com 1.10,2013-10-25 04:01:00,
2013-10-25 00:16:00,62.0,56.0,30.12,NE,51,6.0,-999.0,82,-99.99,,,0.00,weatherlink.com 1.10,2013-10-25 04:16:00,
2013-10-25 00:31:00,61.9,56.0,30.12,ENE,71,6.0,-999.0,82,-99.99,,,0.00,weatherlink.com 1.10,2013-10-25 04:31:00,
2013-10-25 00:46:00,61.9,56.0,30.12,ENE,58,5.0,-999.0,82,-99.99,,,0.00,weatherlink.com 1.10,2013-10-25 04:46:00,
2013-10-25 01:01:00,61.8,56.0,30.12,ENE,76,2.0,-999.0,82,-99.99,,,0.00,weatherlink.com 1.10,2013-10-25 05:01:00,
2013-10-25 01:16:00,61.5,56.0,30.12,ENE,76,6.0,-999.0,82,-99.99,,,0.00,weatherlink.com 1.10,2013-10-25 05:16:00,
2013-10-25 01:31:00,61.4,56.0,30.12,ENE,61,5.0,-999.0,83,-99.99,,,0.00,weatherlink.com 1.10,2013-10-25 05:31:00,
2013-10-25 01:47:00,61.3,56.0,30.12,ENE,58,7.0,-999.0,83,-99.99,,,0.00,weatherlink.com 1.10,2013-10-25 05:47:00,
2013-10-25 02:02:00,61.1,56.0,30.12,NE,36,7.0,-999.0,83,-99.99,,,0.00,weatherlink.com 1.10,2013-10-25 06:02:00,
2013-10-25 02:17:00,61.1,56.0,30.12,ENE,59,5.0,-999.0,84,-99.99,,,0.00,weatherlink.com 1.10,2013-10-25 06:17:00,
2013-10-25 02:32:00,60.9,56.0,30.11,NE,41,6.0,-999.0,83,-99.99,,,0.00,weatherlink.com 1.10,2013-10-25 06:32:00,
2013-10-25 02:47:00,60.8,56.0,30.11,ENE,72,4.0,-999.0,84,-99.99,,,0.00,weatherlink.com 1.10,2013-10-25 06:47:00,
2013-10-25 03:02:00,60.7,56.0,30.11,ENE,59,8.0,-999.0,84,-99.99,,,0.00,weatherlink.com 1.10,2013-10-25 07:02:00,
2013-10-25 03:17:00,60.5,56.0,30.11,NE,39,9.0,-999.0,84,-99.99,,,0.00,weatherlink.com 1.10,2013-10-25 07:17:00,
2013-10-25 03:32:00,60.2,56.0,30.11,NE,39,9.0,-999.0,85,-99.99,,,0.00,weatherlink.com 1.10,2013-10-25 07:32:00,
2013-10-25 03:47:00,60.1,56.0,30.11,NNE,33,8.0,-999.0,85,-99.99,,,0.00,weatherlink.com 1.10,2013-10-25 07:47:00,
2013-10-25 04:02:00,60.0,56.0,30.11,ENE,63,7.0,-999.0,85,-99.99,,,0.00,weatherlink.com 1.10,2013-10-25 08:02:00,
2013-10-25 04:17:00,59.9,55.0,30.11,NNE,22,8.0,-999.0,85,-99.99,,,0.00,weatherlink.com 1.10,2013-10-25 08:17:00,
2013-10-25 04:32:00,59.8,55.0,30.11,NE,49,7.0,-999.0,85,-99.99,,,0.00,weatherlink.com 1.10,2013-10-25 08:32:00,
2013-10-25 04:47:00,59.8,55.0,30.12,NE,50,7.0,-999.0,85,-99.99,,,0.00,weatherlink.com 1.10,2013-10-25 08:47:00,
2013-10-25 05:02:00,-999.0,-99.9,30.12,North,-999,-999.0,-999.0,-999,-99.99,,,0.00,weatherlink.com 1.10,2013-10-25 09:02:00,
2013-10-25 05:17:00,-999.0,-99.9,30.12,North,-999,-999.0,-999.0,-999,-99.99,,,0.00,weatherlink.com 1.10,2013-10-25 09:17:00,
2013-10-25 05:32:00,-999.0,-99.9,30.12,North,-999,-999.0,-999.0,-999,-99.99,,,0.00,weatherlink.com 1.10,2013-10-25 09:32:00,
2013-10-25 05:47:00,-999.0,-99.9,30.12,North,-999,-999.0,-999.0,-999,-99.99,,,0.00,weatherlink.com 1.10,2013-10-25 09:47:00,
2013-10-25 06:02:00,-999.0,-99.9,30.13,North,-999,-999.0,-999.0,-999,-99.99,,,0.00,weatherlink.com 1.10,2013-10-25 10:02:00,
2013-10-25 06:17:00,-999.0,-99.9,30.13,North,-999,-999.0,-999.0,-999,-99.99,,,0.00,weatherlink.com 1.10,2013-10-25 10:17:00,
2013-10-25 06:32:00,-999.0,-99.9,30.14,North,-999,-999.0,-999.0,-999,-99.99,,,0.00,weatherlink.com 1.10,2013-10-25 10:32:00,
2013-10-25 06:47:00,-999.0,-99.9,30.14,North,-999,-999.0,-999.0,-999,-99.99,,,0.00,weatherlink.com 1.10,2013-10-25 10:47:00,
2013-10-25 07:02:00,-999.0,-99.9,30.15,North,-999,-999.0,-999.0,-999,-99.99,,,0.00,weatherlink.com 1.10,2013-10-25 11:02:00,
2013-10-25 07:17:00,-999.0,-99.9,30.15,North,-999,-999.0,-999.0,-999,-99.99,,,0.00,weatherlink.com 1.10,2013-10-25 11:17:00,
2013-10-25 07:35:00,-999.0,-99.9,30.15,North,-999,-999.0,-999.0,-999,-99.99,,,0.00,weatherlink.com 1.10,2013-10-25 11:35:00,
2013-10-25 07:51:00,-999.0,-99.9,30.16,North,-999,-999.0,-999.0,-999,-99.99,,,0.00,weatherlink.com 1.10,2013-10-25 11:51:00,
2013-10-25 08:08:00,60.0,56.0,30.16,NE,43,8.0,-999.0,85,-99.99,,,0.00,weatherlink.com 1.10,2013-10-25 12:08:00,
2013-10-25 08:25:00,60.6,55.0,30.17,NE,53,8.0,-999.0,83,-99.99,,,0.00,weatherlink.com 1.10,2013-10-25 12:25:00,
2013-10-25 08:41:00,63.7,54.0,30.17,North,11,0.0,-999.0,71,-99.99,,,0.00,weatherlink.com 1.10,2013-10-25 12:41:00,
2013-10-25 08:57:00,65.6,54.0,30.18,NNW,330,2.0,-999.0,66,-99.99,,,0.00,weatherlink.com 1.10,2013-10-25 12:57:00,
2013-10-25 09:15:00,67.3,53.0,30.18,NNW,328,3.0,-999.0,61,-99.99,,,0.00,weatherlink.com 1.10,2013-10-25 13:15:00,
2013-10-25 09:31:00,68.1,54.0,30.18,NNW,328,2.0,-999.0,60,-99.99,,,0.00,weatherlink.com 1.10,2013-10-25 13:31:00,
2013-10-25 09:47:00,69.8,52.0,30.19,North,360,4.0,-999.0,53,-99.99,,,0.00,weatherlink.com 1.10,2013-10-25 13:47:00,
2013-10-25 10:03:00,70.3,48.0,30.20,North,355,3.0,-999.0,46,-99.99,,,0.00,weatherlink.com 1.10,2013-10-25 14:03:00,
2013-10-25 10:21:00,71.3,47.0,30.19,North,349,4.0,-999.0,42,-99.99,,,0.00,weatherlink.com 1.10,2013-10-25 14:21:00,
2013-10-25 10:37:00,72.0,46.0,30.19,North,9,1.0,-999.0,40,-99.99,,,0.00,weatherlink.com 1.10,2013-10-25 14:37:00,
2013-10-25 10:53:00,73.2,46.0,30.20,NNE,14,0.0,-999.0,38,-99.99,,,0.00,weatherlink.com 1.10,2013-10-25 14:53:00,
2013-10-25 11:09:00,74.6,47.0,30.20,NW,325,2.0,-999.0,38,-99.99,,,0.00,weatherlink.com 1.10,2013-10-25 15:09:00,
2013-10-25 11:26:00,75.6,47.0,30.19,NNW,338,1.0,-999.0,36,-99.99,,,0.00,weatherlink.com 1.10,2013-10-25 15:26:00,
2013-10-25 11:42:00,75.1,46.0,30.19,NNW,331,7.0,-999.0,35,-99.99,,,0.00,weatherlink.com 1.10,2013-10-25 15:42:00,
2013-10-25 12:00:00,75.8,46.0,30.18,North,355,0.0,-999.0,35,-99.99,,,0.00,weatherlink.com 1.10,2013-10-25 16:00:00,
2013-10-25 12:16:00,76.7,47.0,30.18,NW,311,1.0,-999.0,35,-99.99,,,0.00,weatherlink.com 1.10,2013-10-25 16:16:00,
2013-10-25 12:32:00,77.6,48.0,30.17,North,5,0.0,-999.0,35,-99.99,,,0.00,weatherlink.com 1.10,2013-10-25 16:32:00,
2013-10-25 12:48:00,78.3,48.0,30.16,NNW,332,7.0,-999.0,34,-99.99,,,0.00,weatherlink.com 1.10,2013-10-25 16:48:00,
2013-10-25 13:06:00,78.1,47.0,30.15,North,11,0.0,-999.0,34,-99.99,,,0.00,weatherlink.com 1.10,2013-10-25 17:06:00,
2013-10-25 13:22:00,79.2,50.0,30.15,North,360,2.0,-999.0,36,-99.99,,,0.00,weatherlink.com 1.10,2013-10-25 17:22:00,
2013-10-25 13:39:00,79.0,50.0,30.15,NW,325,4.0,-999.0,36,-99.99,,,0.00,weatherlink.com 1.10,2013-10-25 17:39:00,
2013-10-25 13:55:00,79.0,49.0,30.14,North,355,0.0,-999.0,35,-99.99,,,0.00,weatherlink.com 1.10,2013-10-25 17:55:00,
2013-10-25 14:11:00,79.9,49.0,30.13,NNE,13,2.0,-999.0,34,-99.99,,,0.00,weatherlink.com 1.10,2013-10-25 18:11:00,
2013-10-25 14:27:00,79.9,49.0,30.13,North,355,1.0,-999.0,34,-99.99,,,0.00,weatherlink.com 1.10,2013-10-25 18:27:00,
2013-10-25 14:45:00,80.5,49.0,30.12,North,5,1.0,-999.0,33,-99.99,,,0.00,weatherlink.com 1.10,2013-10-25 18:45:00,
2013-10-25 15:01:00,80.7,51.0,30.12,North,355,3.0,-999.0,35,-99.99,,,0.00,weatherlink.com 1.10,2013-10-25 19:01:00,
2013-10-25 15:17:00,79.9,48.0,30.12,North,5,1.0,-999.0,33,-99.99,,,0.00,weatherlink.com 1.10,2013-10-25 19:17:00,
2013-10-25 15:34:00,81.1,49.0,30.11,North,360,1.0,-999.0,32,-99.99,,,0.00,weatherlink.com 1.10,2013-10-25 19:34:00,
2013-10-25 15:50:00,81.6,45.0,30.11,NNW,340,2.0,-999.0,28,-99.99,,,0.00,weatherlink.com 1.10,2013-10-25 19:50:00,
2013-10-25 16:06:00,81.1,47.0,30.11,NW,318,2.0,-999.0,30,-99.99,,,0.00,weatherlink.com 1.10,2013-10-25 20:06:00,
2013-10-25 16:24:00,80.7,47.0,30.11,East,91,0.0,-999.0,31,-99.99,,,0.00,weatherlink.com 1.10,2013-10-25 20:24:00,
2013-10-25 16:40:00,80.7,45.0,30.11,NNW,336,1.0,-999.0,28,-99.99,,,0.00,weatherlink.com 1.10,2013-10-25 20:40:00,
2013-10-25 16:57:00,80.3,47.0,30.11,NE,34,2.0,-999.0,31,-99.99,,,0.00,weatherlink.com 1.10,2013-10-25 20:57:00,
2013-10-25 17:12:00,79.9,45.0,30.11,NNE,19,3.0,-999.0,29,-99.99,,,0.00,weatherlink.com 1.10,2013-10-25 21:12:00,
2013-10-25 17:28:00,79.2,46.0,30.11,NNE,30,0.0,-999.0,31,-99.99,,,0.00,weatherlink.com 1.10,2013-10-25 21:28:00,
2013-10-25 17:42:00,78.3,48.0,30.11,NNE,30,4.0,-999.0,34,-99.99,,,0.00,weatherlink.com 1.10,2013-10-25 21:42:00,
2013-10-25 17:57:00,77.6,47.0,30.11,North,355,0.0,-999.0,34,-99.99,,,0.00,weatherlink.com 1.10,2013-10-25 21:57:00,
2013-10-25 18:12:00,76.8,48.0,30.11,NNW,336,1.0,-999.0,36,-99.99,,,0.00,weatherlink.com 1.10,2013-10-25 22:12:00,
2013-10-25 18:28:00,76.3,49.0,30.11,North,360,0.0,-999.0,38,-99.99,,,0.00,weatherlink.com 1.10,2013-10-25 22:28:00,
2013-10-25 18:43:00,74.1,56.0,30.11,ENE,67,3.0,-999.0,54,-99.99,,,0.00,weatherlink.com 1.10,2013-10-25 22:43:00,
2013-10-25 18:58:00,72.9,56.0,30.12,ENE,57,6.0,-999.0,56,-99.99,,,0.00,weatherlink.com 1.10,2013-10-25 22:58:00,
2013-10-25 19:13:00,72.3,57.0,30.12,East,91,8.0,-999.0,59,-99.99,,,0.00,weatherlink.com 1.10,2013-10-25 23:13:00,
2013-10-25 19:28:00,71.5,58.0,30.13,East,98,13.0,-999.0,63,-99.99,,,0.00,weatherlink.com 1.10,2013-10-25 23:28:00,
2013-10-25 19:42:00,70.1,59.0,30.13,East,85,11.0,-999.0,67,-99.99,,,0.00,weatherlink.com 1.10,2013-10-25 23:42:00,
2013-10-25 19:57:00,69.4,59.0,30.14,ENE,74,11.0,-999.0,70,-99.99,,,0.00,weatherlink.com 1.10,2013-10-25 23:57:00,
2013-10-25 20:12:00,68.8,59.0,30.14,East,82,11.0,-999.0,71,-99.99,,,0.00,weatherlink.com 1.10,2013-10-26 00:12:00,
2013-10-25 20:28:00,68.5,59.0,30.14,East,90,12.0,-999.0,72,-99.99,,,0.00,weatherlink.com 1.10,2013-10-26 00:28:00,
2013-10-25 20:43:00,68.0,59.0,30.15,East,86,6.0,-999.0,74,-99.99,,,0.00,weatherlink.com 1.10,2013-10-26 00:43:00,
2013-10-25 20:58:00,67.5,59.0,30.15,NE,43,4.0,-999.0,74,-99.99,,,0.00,weatherlink.com 1.10,2013-10-26 00:58:00,
2013-10-25 21:13:00,67.0,59.0,30.16,NNE,33,8.0,-999.0,76,-99.99,,,0.00,weatherlink.com 1.10,2013-10-26 01:13:00,
2013-10-25 21:28:00,66.6,59.0,30.16,ENE,57,4.0,-999.0,76,-99.99,,,0.00,weatherlink.com 1.10,2013-10-26 01:28:00,
2013-10-25 21:43:00,66.1,58.0,30.16,ENE,74,10.0,-999.0,76,-99.99,,,0.00,weatherlink.com 1.10,2013-10-26 01:43:00,
2013-10-25 21:59:00,65.9,59.0,30.17,East,84,7.0,-999.0,77,-99.99,,,0.00,weatherlink.com 1.10,2013-10-26 01:59:00,
2013-10-25 22:14:00,65.5,58.0,30.17,ENE,71,6.0,-999.0,77,-99.99,,,0.00,weatherlink.com 1.10,2013-10-26 02:14:00,
2013-10-25 22:29:00,65.3,58.0,30.17,East,84,11.0,-999.0,78,-99.99,,,0.00,weatherlink.com 1.10,2013-10-26 02:29:00,
2013-10-25 22:44:00,65.0,58.0,30.18,ENE,65,15.0,-999.0,78,-99.99,,,0.00,weatherlink.com 1.10,2013-10-26 02:44:00,
2013-10-25 22:59:00,64.9,58.0,30.18,ENE,76,13.0,-999.0,78,-99.99,,,0.00,weatherlink.com 1.10,2013-10-26 02:59:00,
2013-10-25 23:14:00,64.6,58.0,30.18,ENE,65,6.0,-999.0,78,-99.99,,,0.00,weatherlink.com 1.10,2013-10-26 03:14:00,
2013-10-25 23:29:00,64.6,58.0,30.18,ENE,67,8.0,-999.0,78,-99.99,,,0.00,weatherlink.com 1.10,2013-10-26 03:29:00,
2013-10-25 23:44:00,64.2,57.0,30.18,ENE,63,7.0,-999.0,78,-99.99,,,0.00,weatherlink.com 1.10,2013-10-26 03:44:00,
2013-10-25 23:59:00,64.0,57.0,30.17,ENE,65,5.0,-999.0,78,-99.99,,,0.00,weatherlink.com 1.10,2013-10-26 03:59:00,